Time;durP1;ratioP1;P1;durP2;ratioP2;P2;SDS_P1;SDS_P2;PMS_P1;PMS_P2;Temp;Humidity;BMP_temperature;BMP_pressure;BME280_temperature;BME280_humidity;BME280_pressure;Samples;Min_cycle;Max_cycle;Signal;HPM_P1;HPM_P2
2023/06/21 00:00:30;;;;;;;0.10;0.10;;;22.30;99.90;;;;;;5038363;28;20209;-81
2023/06/21 00:02:59;;;;;;;0.10;0.10;;;22.30;99.90;;;;;;5041134;28;20210;-80
2023/06/21 00:05:24;;;;;;;0.10;0.10;;;22.40;99.90;;;;;;5040074;28;20197;-81
2023/06/21 00:07:52;;;;;;;0.10;0.10;;;22.40;99.90;;;;;;5040499;28;20209;-82
2023/06/21 00:10:20;;;;;;;0.10;0.10;;;22.50;99.90;;;;;;5040775;28;20219;-81
2023/06/21 00:12:46;;;;;;;0.10;0.10;;;22.60;99.90;;;;;;5039440;28;20190;-81
2023/06/21 00:15:12;;;;;;;0.10;0.10;;;22.60;99.90;;;;;;5041453;28;20185;-81
2023/06/21 00:17:37;;;;;;;0.10;0.10;;;22.50;99.90;;;;;;5039472;28;20212;-81
2023/06/21 00:20:03;;;;;;;0.10;0.10;;;22.50;99.90;;;;;;5041520;28;20197;-82
2023/06/21 00:22:30;;;;;;;0.10;0.10;;;22.50;99.90;;;;;;5050965;28;20185;-81
2023/06/21 00:24:57;;;;;;;0.10;0.10;;;22.10;99.90;;;;;;5039518;28;20627;-81
2023/06/21 00:27:22;;;;;;;0.10;0.10;;;22.00;99.90;;;;;;5041302;28;20216;-81
2023/06/21 00:29:48;;;;;;;0.10;0.10;;;22.00;99.90;;;;;;5045465;28;20896;-81
2023/06/21 00:32:13;;;;;;;0.10;0.10;;;21.70;99.90;;;;;;5044713;28;20243;-81
2023/06/21 00:34:39;;;;;;;0.10;0.10;;;21.50;99.90;;;;;;5044625;28;20272;-81
2023/06/21 00:37:05;;;;;;;0.10;0.10;;;21.10;99.90;;;;;;5046241;28;20195;-82
2023/06/21 00:39:30;;;;;;;0.10;0.10;;;21.10;99.90;;;;;;5041977;28;20210;-81
2023/06/21 00:41:56;;;;;;;0.10;0.10;;;21.20;99.90;;;;;;5044053;28;20285;-81
2023/06/21 00:44:22;;;;;;;0.10;0.10;;;21.30;99.90;;;;;;5044028;28;20193;-81
2023/06/21 00:46:48;;;;;;;0.10;0.10;;;21.40;99.90;;;;;;5043367;28;20669;-81
2023/06/21 00:49:14;;;;;;;0.10;0.10;;;21.50;99.90;;;;;;5045734;28;20185;-81
2023/06/21 00:51:41;;;;;;;0.10;0.10;;;21.50;99.90;;;;;;5044639;28;20181;-81
2023/06/21 00:54:07;;;;;;;0.10;0.10;;;21.50;99.90;;;;;;5044414;28;20648;-81
2023/06/21 00:56:33;;;;;;;0.10;0.10;;;21.20;99.90;;;;;;5041984;28;20244;-81
2023/06/21 00:58:59;;;;;;;0.10;0.10;;;20.90;99.90;;;;;;5044471;28;20189;-81
2023/06/21 01:01:26;;;;;;;0.10;0.10;;;20.70;99.90;;;;;;5043944;28;20214;-81
2023/06/21 01:03:53;;;;;;;0.10;0.10;;;20.70;99.90;;;;;;5046063;28;20191;-81
2023/06/21 01:06:27;;;;;;;0.10;0.10;;;20.80;99.90;;;;;;5045500;28;20209;-81
2023/06/21 01:09:34;;;;;;;0.10;0.10;;;20.80;99.90;;;;;;5044181;28;20194;-81
2023/06/21 01:12:25;;;;;;;0.10;0.10;;;21.00;99.90;;;;;;5032991;28;20216;-80
2023/06/21 01:15:02;;;;;;;0.10;0.10;;;21.20;99.90;;;;;;5045491;28;20870;-80
2023/06/21 01:17:34;;;;;;;0.10;0.10;;;20.90;99.90;;;;;;5041522;28;20221;-80
2023/06/21 01:20:01;;;;;;;0.10;0.10;;;21.00;99.90;;;;;;5042342;28;20224;-80
2023/06/21 01:22:58;;;;;;;0.10;0.10;;;21.10;99.90;;;;;;5051879;28;20227;-81
2023/06/21 01:25:37;;;;;;;0.10;0.10;;;21.10;99.90;;;;;;5041848;28;20198;-80
2023/06/21 01:28:48;;;;;;;0.10;0.10;;;21.10;99.90;;;;;;5043679;28;20249;-81
2023/06/21 01:31:15;;;;;;;0.10;0.10;;;21.20;99.90;;;;;;5040964;28;20288;-80
2023/06/21 01:33:41;;;;;;;0.10;0.10;;;20.90;99.90;;;;;;5043609;28;20196;-80
2023/06/21 01:36:09;;;;;;;0.10;0.10;;;20.50;99.90;;;;;;5044092;28;20206;-80
2023/06/21 01:38:34;;;;;;;0.10;0.10;;;20.40;99.90;;;;;;5053695;28;20197;-79
2023/06/21 01:41:01;;;;;;;0.10;0.10;;;20.40;99.90;;;;;;5041356;28;20213;-80
2023/06/21 01:43:27;;;;;;;0.10;0.10;;;20.30;99.90;;;;;;5042656;28;20276;-80
2023/06/21 01:45:53;;;;;;;0.10;0.10;;;20.00;99.90;;;;;;5043958;28;21236;-80
2023/06/21 01:48:20;;;;;;;0.10;0.10;;;19.90;99.90;;;;;;5042813;28;20229;-80
2023/06/21 01:50:46;;;;;;;0.10;0.10;;;19.90;99.90;;;;;;5042886;28;20248;-80
2023/06/21 01:53:13;;;;;;;0.10;0.10;;;19.90;99.90;;;;;;5042284;28;20678;-80
2023/06/21 01:55:43;;;;;;;0.10;0.10;;;20.10;99.90;;;;;;5043270;28;20659;-80
2023/06/21 01:58:10;;;;;;;0.10;0.10;;;20.10;99.90;;;;;;5041772;28;21184;-80
2023/06/21 02:00:35;;;;;;;0.10;0.10;;;20.10;99.90;;;;;;5042280;28;20202;-80
2023/06/21 02:03:06;;;;;;;0.10;0.10;;;20.00;99.90;;;;;;5044762;28;20182;-80
2023/06/21 02:05:33;;;;;;;0.10;0.10;;;19.90;99.90;;;;;;5042259;28;20254;-80
2023/06/21 02:08:00;;;;;;;0.10;0.10;;;19.90;99.90;;;;;;5043212;28;20205;-80
2023/06/21 02:10:25;;;;;;;0.10;0.10;;;19.80;99.90;;;;;;5042676;28;20232;-80
2023/06/21 02:12:52;;;;;;;0.10;0.10;;;19.70;99.90;;;;;;5040365;28;20655;-80
2023/06/21 02:15:19;;;;;;;0.10;0.10;;;19.70;99.90;;;;;;5043165;28;20259;-80
2023/06/21 02:17:49;;;;;;;0.10;0.10;;;19.70;99.90;;;;;;5042752;28;20185;-80
2023/06/21 02:20:16;;;;;;;0.10;0.10;;;19.50;99.90;;;;;;5043563;28;20316;-80
2023/06/21 02:22:42;;;;;;;0.10;0.10;;;19.40;99.90;;;;;;5043850;28;20299;-80
2023/06/21 02:25:09;;;;;;;0.10;0.10;;;19.30;99.90;;;;;;5041110;28;20185;-80
2023/06/21 02:27:35;;;;;;;0.10;0.10;;;19.30;99.90;;;;;;5042514;28;20271;-80
2023/06/21 02:30:00;;;;;;;0.10;0.10;;;19.30;99.90;;;;;;5044238;28;20193;-80
2023/06/21 02:32:26;;;;;;;0.10;0.10;;;19.30;99.90;;;;;;5040382;28;20254;-80
2023/06/21 02:34:51;;;;;;;0.10;0.10;;;19.40;99.90;;;;;;5042997;28;20184;-80
2023/06/21 02:37:17;;;;;;;0.10;0.10;;;19.40;99.90;;;;;;5042033;28;20185;-80
2023/06/21 02:39:42;;;;;;;0.10;0.10;;;19.20;99.90;;;;;;5040417;28;20217;-80
2023/06/21 02:42:08;;;;;;;0.10;0.10;;;19.10;99.90;;;;;;5041552;28;20268;-80
2023/06/21 02:44:33;;;;;;;0.10;0.10;;;19.10;99.90;;;;;;5041222;28;20186;-80
2023/06/21 02:46:59;;;;;;;0.10;0.10;;;19.10;99.90;;;;;;5042407;28;20964;-80
2023/06/21 02:49:25;;;;;;;1.33;1.33;;;19.30;99.90;;;;;;5041248;28;20190;-80
2023/06/21 02:51:52;;;;;;;0.10;0.10;;;19.30;99.90;;;;;;5043066;28;20281;-80
2023/06/21 02:54:18;;;;;;;0.10;0.10;;;19.40;99.90;;;;;;5040047;28;20201;-81
2023/06/21 02:56:44;;;;;;;0.10;0.10;;;19.60;99.90;;;;;;5040108;28;20272;-81
2023/06/21 02:59:10;;;;;;;0.10;0.10;;;19.80;99.90;;;;;;5041269;28;20269;-81
2023/06/21 03:01:36;;;;;;;0.10;0.10;;;20.00;99.90;;;;;;5040908;28;20212;-81
2023/06/21 03:04:01;;;;;;;0.10;0.10;;;19.90;99.90;;;;;;5041965;28;20178;-80
2023/06/21 03:06:29;;;;;;;0.10;0.10;;;20.00;99.90;;;;;;5043981;28;20217;-81
2023/06/21 03:08:57;;;;;;;0.10;0.10;;;20.10;99.90;;;;;;5040463;28;20292;-81
2023/06/21 03:11:23;;;;;;;0.10;0.10;;;20.20;99.90;;;;;;5041590;28;20194;-81
2023/06/21 03:13:49;;;;;;;0.10;0.10;;;20.30;99.90;;;;;;5039843;28;20663;-81
2023/06/21 03:16:15;;;;;;;0.10;0.10;;;20.20;99.90;;;;;;5041520;28;20189;-80
2023/06/21 03:18:40;;;;;;;0.10;0.10;;;19.90;99.90;;;;;;5040855;28;20237;-80
2023/06/21 03:21:06;;;;;;;0.10;0.10;;;20.00;99.90;;;;;;5040948;28;20198;-80
2023/06/21 03:23:31;;;;;;;0.10;0.10;;;20.20;99.90;;;;;;5040072;28;20189;-81
2023/06/21 03:26:00;;;;;;;0.10;0.10;;;20.30;99.90;;;;;;5043394;28;20261;-81
2023/06/21 03:28:26;;;;;;;0.10;0.10;;;20.40;99.90;;;;;;5037774;28;20702;-81
2023/06/21 03:30:51;;;;;;;0.10;0.10;;;20.50;99.90;;;;;;5041780;28;20233;-82
2023/06/21 03:33:17;;;;;;;0.10;0.10;;;20.50;99.90;;;;;;5042096;28;20651;-82
2023/06/21 03:35:42;;;;;;;0.10;0.10;;;20.60;99.90;;;;;;5041682;28;20182;-82
2023/06/21 03:38:08;;;;;;;0.10;0.10;;;20.70;99.90;;;;;;5041488;28;20229;-81
2023/06/21 03:40:34;;;;;;;0.10;0.10;;;21.00;99.90;;;;;;5040604;28;20236;-82
2023/06/21 03:43:00;;;;;;;0.10;0.10;;;21.40;99.90;;;;;;5040184;28;20193;-82
2023/06/21 03:45:25;;;;;;;0.10;0.10;;;21.40;99.90;;;;;;5043032;28;20195;-82
2023/06/21 03:47:51;;;;;;;0.10;0.10;;;21.20;99.90;;;;;;5041528;28;20214;-81
2023/06/21 03:50:17;;;;;;;0.10;0.10;;;20.50;99.90;;;;;;5038524;28;20547;-82
2023/06/21 03:52:43;;;;;;;0.10;0.10;;;20.10;99.90;;;;;;5036149;28;20216;-82
2023/06/21 03:55:09;;;;;;;0.10;0.10;;;20.10;99.90;;;;;;5041513;28;20182;-81
2023/06/21 03:57:34;;;;;;;0.10;0.10;;;20.10;99.90;;;;;;5042130;28;20189;-81
2023/06/21 04:00:00;;;;;;;0.10;0.10;;;20.10;99.90;;;;;;5041165;28;20330;-82
2023/06/21 04:02:26;;;;;;;0.10;0.10;;;20.50;99.90;;;;;;5040873;28;20920;-81
2023/06/21 04:04:51;;;;;;;0.10;0.10;;;20.70;99.90;;;;;;5035765;28;21664;-81
2023/06/21 04:07:19;;;;;;;0.10;0.10;;;20.80;99.90;;;;;;5041830;28;20201;-82
2023/06/21 04:09:45;;;;;;;0.10;0.10;;;21.20;99.90;;;;;;5041797;28;20202;-82
2023/06/21 04:12:11;;;;;;;0.10;0.10;;;21.40;99.90;;;;;;5035715;28;20656;-83
2023/06/21 04:14:37;;;;;;;0.10;0.10;;;21.40;99.90;;;;;;5037490;28;20630;-83
2023/06/21 04:17:02;;;;;;;0.10;0.10;;;21.40;99.90;;;;;;5037558;28;20188;-83
2023/06/21 04:19:28;;;;;;;0.10;0.10;;;21.60;99.90;;;;;;5040866;28;20181;-83
2023/06/21 04:21:54;;;;;;;0.10;0.10;;;21.90;99.90;;;;;;5037079;28;20192;-80
2023/06/21 04:24:19;;;;;;;0.10;0.10;;;22.20;99.90;;;;;;5037029;28;20208;-81
2023/06/21 04:26:44;;;;;;;0.10;0.10;;;21.90;99.90;;;;;;5038539;28;20178;-81
2023/06/21 04:29:10;;;;;;;0.10;0.10;;;21.80;99.90;;;;;;5039990;28;20182;-82
2023/06/21 04:31:37;;;;;;;0.10;0.10;;;21.70;99.90;;;;;;5039384;28;20198;-81
2023/06/21 04:34:04;;;;;;;0.10;0.10;;;21.70;99.90;;;;;;5038672;28;20263;-82
2023/06/21 04:36:29;;;;;;;0.10;0.10;;;22.00;99.90;;;;;;5040114;28;20188;-81
2023/06/21 04:38:55;;;;;;;0.10;0.10;;;22.30;99.90;;;;;;5037487;28;20177;-81
2023/06/21 04:41:21;;;;;;;0.10;0.10;;;22.80;99.90;;;;;;5036538;28;20217;-81
2023/06/21 04:43:47;;;;;;;0.10;0.10;;;23.10;99.90;;;;;;5038852;28;20268;-81
2023/06/21 04:46:17;;;;;;;0.10;0.10;;;23.30;99.90;;;;;;5038542;28;20276;-81
2023/06/21 04:48:43;;;;;;;0.10;0.10;;;23.10;99.90;;;;;;5039496;28;20217;-81
2023/06/21 04:51:08;;;;;;;0.10;0.10;;;23.00;99.90;;;;;;5038405;28;20729;-81
2023/06/21 04:53:34;;;;;;;0.10;0.10;;;22.90;99.90;;;;;;5039585;28;20186;-82
2023/06/21 04:55:59;;;;;;;0.10;0.10;;;22.80;99.90;;;;;;5041320;28;20177;-81
2023/06/21 04:58:25;;;;;;;0.10;0.10;;;22.60;99.90;;;;;;5036947;28;20209;-81
2023/06/21 05:00:51;;;;;;;0.10;0.10;;;22.50;99.90;;;;;;5039078;28;20718;-82
2023/06/21 05:03:16;;;;;;;0.10;0.10;;;22.40;99.90;;;;;;5041005;28;20189;-81
2023/06/21 05:05:42;;;;;;;0.10;0.10;;;22.40;99.90;;;;;;5040274;28;20617;-81
2023/06/21 05:08:07;;;;;;;0.10;0.10;;;22.40;99.90;;;;;;5039773;28;20216;-81
2023/06/21 05:10:34;;;;;;;0.10;0.10;;;22.50;99.90;;;;;;5036514;28;20864;-82
2023/06/21 05:12:59;;;;;;;0.10;0.10;;;22.60;99.90;;;;;;5041974;28;20185;-81
2023/06/21 05:15:27;;;;;;;0.10;0.10;;;22.60;99.90;;;;;;5041307;28;20189;-81
2023/06/21 05:17:52;;;;;;;0.10;0.10;;;22.70;99.90;;;;;;5042179;28;20182;-81
2023/06/21 05:20:20;;;;;;;0.10;0.10;;;22.70;99.90;;;;;;5044105;28;20298;-81
2023/06/21 05:22:45;;;;;;;0.10;0.10;;;22.80;99.90;;;;;;5040928;28;20212;-81
2023/06/21 05:25:11;;;;;;;0.10;0.10;;;23.00;99.90;;;;;;5045555;28;20186;-81
2023/06/21 05:27:37;;;;;;;0.10;0.10;;;23.20;99.90;;;;;;5041306;28;20205;-81
2023/06/21 05:30:03;;;;;;;0.10;0.10;;;23.20;99.90;;;;;;5044723;28;20832;-82
2023/06/21 05:32:28;;;;;;;0.10;0.10;;;23.30;99.90;;;;;;5040559;28;20186;-82
2023/06/21 05:34:54;;;;;;;0.10;0.10;;;23.40;99.90;;;;;;5044220;28;20188;-82
2023/06/21 05:37:20;;;;;;;0.10;0.10;;;23.40;99.90;;;;;;5042610;28;20227;-81
2023/06/21 05:39:46;;;;;;;0.10;0.10;;;23.30;99.90;;;;;;5042335;28;20201;-81
2023/06/21 05:42:11;;;;;;;0.10;0.10;;;23.40;99.90;;;;;;5051237;28;20228;-82
2023/06/21 05:44:37;;;;;;;0.10;0.10;;;23.30;99.90;;;;;;5041735;28;20209;-82
2023/06/21 05:47:03;;;;;;;0.10;0.10;;;23.30;99.90;;;;;;5039220;28;21183;-82
2023/06/21 05:49:29;;;;;;;0.10;0.10;;;23.20;99.90;;;;;;5043369;28;20229;-82
2023/06/21 05:51:54;;;;;;;0.10;0.10;;;23.20;99.90;;;;;;5042304;28;20174;-81
2023/06/21 05:54:20;;;;;;;0.10;0.10;;;23.00;99.90;;;;;;5042544;28;20182;-82
2023/06/21 05:56:45;;;;;;;0.10;0.10;;;23.00;99.90;;;;;;5043286;28;20678;-82
2023/06/21 05:59:11;;;;;;;0.10;0.10;;;23.00;99.90;;;;;;5041453;28;20186;-82
2023/06/21 06:01:36;;;;;;;0.10;0.10;;;22.80;99.90;;;;;;5035410;28;20336;-82
2023/06/21 06:04:02;;;;;;;0.10;0.10;;;22.90;99.90;;;;;;5047289;28;20249;-82
2023/06/21 06:06:39;;;;;;;0.10;0.10;;;23.00;99.90;;;;;;5024820;28;20197;-82
2023/06/21 06:09:06;;;;;;;0.10;0.10;;;22.90;99.90;;;;;;5039038;28;20209;-81
2023/06/21 06:11:31;;;;;;;0.10;0.10;;;22.90;99.90;;;;;;5038970;28;20208;-81
2023/06/21 06:13:57;;;;;;;0.10;0.10;;;22.80;99.90;;;;;;5039103;28;20551;-84
2023/06/21 06:16:22;;;;;;;0.10;0.10;;;22.80;99.90;;;;;;5040295;28;20191;-81
2023/06/21 06:18:48;;;;;;;0.10;0.10;;;22.70;99.90;;;;;;5039158;28;20186;-81
2023/06/21 06:21:14;;;;;;;0.10;0.10;;;22.80;99.90;;;;;;5039492;28;20773;-81
2023/06/21 06:23:40;;;;;;;0.10;0.10;;;22.80;99.90;;;;;;5041161;28;20228;-82
2023/06/21 06:26:06;;;;;;;0.10;0.10;;;22.90;99.90;;;;;;5042786;28;20205;-81
2023/06/21 06:28:31;;;;;;;0.10;0.10;;;23.00;99.90;;;;;;5040951;28;20194;-83
2023/06/21 06:30:57;;;;;;;0.10;0.10;;;23.00;99.90;;;;;;5036965;28;20291;-82
2023/06/21 06:33:22;;;;;;;0.10;0.10;;;23.00;99.90;;;;;;5039178;28;20202;-82
2023/06/21 06:35:48;;;;;;;0.10;0.10;;;23.00;99.90;;;;;;5041462;28;20472;-82
2023/06/21 06:38:14;;;;;;;0.10;0.10;;;23.10;99.90;;;;;;5043243;28;20292;-82
2023/06/21 06:40:39;;;;;;;0.10;0.10;;;23.10;99.90;;;;;;5036296;28;20224;-83
2023/06/21 06:43:06;;;;;;;0.10;0.10;;;23.20;99.90;;;;;;5044340;28;20233;-82
2023/06/21 06:45:32;;;;;;;0.10;0.10;;;23.10;99.90;;;;;;5040409;28;20178;-82
2023/06/21 06:47:57;;;;;;;0.10;0.10;;;23.20;99.90;;;;;;5041401;28;20293;-82
2023/06/21 06:50:23;;;;;;;16.87;15.63;;;23.20;99.90;;;;;;5039114;28;20216;-82
2023/06/21 06:52:49;;;;;;;0.10;0.10;;;23.30;99.90;;;;;;5041234;28;20728;-83
2023/06/21 06:55:14;;;;;;;0.10;0.10;;;23.40;99.90;;;;;;5042120;28;20222;-82
2023/06/21 06:57:40;;;;;;;0.10;0.10;;;23.40;99.90;;;;;;5042330;28;20185;-82
2023/06/21 07:00:12;;;;;;;0.10;0.10;;;23.40;99.90;;;;;;5038414;28;20210;-83
2023/06/21 07:02:37;;;;;;;0.10;0.10;;;23.40;99.90;;;;;;5040560;28;20216;-83
2023/06/21 07:05:03;;;;;;;0.10;0.10;;;23.40;99.90;;;;;;5040248;28;20225;-82
2023/06/21 07:07:29;;;;;;;0.10;0.10;;;23.50;99.90;;;;;;5047156;28;20206;-82
2023/06/21 07:09:54;;;;;;;0.20;0.20;;;23.40;99.90;;;;;;5039340;28;20225;-83
2023/06/21 07:12:20;;;;;;;0.10;0.10;;;23.40;99.90;;;;;;5043203;28;20182;-82
2023/06/21 07:14:45;;;;;;;0.10;0.10;;;23.50;99.90;;;;;;5037159;28;20220;-82
2023/06/21 07:17:11;;;;;;;0.10;0.10;;;23.60;99.90;;;;;;5037254;28;20190;-82
2023/06/21 07:19:37;;;;;;;0.10;0.10;;;23.50;99.90;;;;;;5036923;28;20527;-82
2023/06/21 07:22:02;;;;;;;0.10;0.10;;;23.60;99.90;;;;;;5041927;28;20676;-82
2023/06/21 07:24:28;;;;;;;0.10;0.10;;;23.50;99.90;;;;;;5044390;28;20276;-82
2023/06/21 07:26:53;;;;;;;0.10;0.10;;;23.60;99.90;;;;;;5039691;28;20232;-82
2023/06/21 07:29:19;;;;;;;0.10;0.10;;;23.60;99.90;;;;;;5036166;28;20251;-82
2023/06/21 07:31:44;;;;;;;0.10;0.10;;;23.80;99.90;;;;;;5037227;28;20212;-81
2023/06/21 07:34:10;;;;;;;0.10;0.10;;;23.90;99.90;;;;;;5041091;28;20179;-82
2023/06/21 07:36:35;;;;;;;0.10;0.10;;;24.10;99.90;;;;;;5037323;28;20581;-87
2023/06/21 07:39:01;;;;;;;0.10;0.10;;;24.10;99.90;;;;;;5039093;28;20676;-82
2023/06/21 07:41:27;;;;;;;0.10;0.10;;;24.30;99.90;;;;;;5036150;28;20223;-82
2023/06/21 07:43:52;;;;;;;0.10;0.10;;;24.40;99.90;;;;;;5042799;28;20186;-82
2023/06/21 07:46:18;;;;;;;0.10;0.10;;;24.30;99.90;;;;;;5041900;28;20251;-82
2023/06/21 07:48:43;;;;;;;0.10;0.10;;;24.30;99.90;;;;;;5043093;28;20204;-83
2023/06/21 07:51:09;;;;;;;0.10;0.10;;;24.50;99.90;;;;;;5043219;28;20745;-82
2023/06/21 07:53:35;;;;;;;0.10;0.10;;;24.60;99.90;;;;;;5041124;28;20181;-83
2023/06/21 07:56:00;;;;;;;0.27;0.27;;;24.40;99.90;;;;;;5039962;28;20182;-83
2023/06/21 07:58:26;;;;;;;0.10;0.10;;;24.50;99.90;;;;;;5041563;28;20262;-83
2023/06/21 08:00:52;;;;;;;0.10;0.10;;;24.60;99.90;;;;;;5039664;28;20912;-83
2023/06/21 08:03:17;;;;;;;0.10;0.10;;;24.70;99.90;;;;;;5041795;28;20192;-83
2023/06/21 08:05:43;;;;;;;0.10;0.10;;;24.80;99.90;;;;;;5038138;28;20205;-82
2023/06/21 08:08:09;;;;;;;0.10;0.10;;;25.10;99.90;;;;;;5041015;28;20230;-83
2023/06/21 08:10:35;;;;;;;0.10;0.10;;;25.10;99.90;;;;;;5040512;28;20208;-83
2023/06/21 08:13:00;;;;;;;0.10;0.10;;;25.20;99.90;;;;;;5046693;28;20558;-83
2023/06/21 08:15:26;;;;;;;0.10;0.10;;;25.20;99.90;;;;;;5038562;28;20185;-83
2023/06/21 08:17:51;;;;;;;0.10;0.10;;;25.30;99.90;;;;;;5041220;28;20279;-83
2023/06/21 08:20:17;;;;;;;0.10;0.10;;;25.40;99.90;;;;;;5042247;28;21011;-83
2023/06/21 08:22:43;;;;;;;0.10;0.10;;;25.50;99.90;;;;;;5041176;28;20192;-83
2023/06/21 08:25:08;;;;;;;0.10;0.10;;;25.70;99.90;;;;;;5044857;28;20855;-82
2023/06/21 08:27:34;;;;;;;0.10;0.10;;;25.50;99.90;;;;;;5038501;28;20651;-82
2023/06/21 08:30:00;;;;;;;0.10;0.10;;;25.70;99.90;;;;;;5043385;28;20216;-82
2023/06/21 08:32:25;;;;;;;0.10;0.10;;;26.10;99.90;;;;;;5043462;28;20590;-83
2023/06/21 08:34:53;;;;;;;0.10;0.10;;;26.40;99.90;;;;;;5042835;28;20186;-83
2023/06/21 08:37:22;;;;;;;0.10;0.10;;;26.70;99.90;;;;;;5041683;28;20206;-82
2023/06/21 08:39:53;;;;;;;0.10;0.10;;;27.00;99.90;;;;;;5042539;28;20205;-83
2023/06/21 08:42:19;;;;;;;0.10;0.10;;;27.30;99.90;;;;;;5039455;28;20240;-82
2023/06/21 08:44:46;;;;;;;0.10;0.10;;;27.50;99.90;;;;;;5040459;28;20192;-83
2023/06/21 08:47:14;;;;;;;0.10;0.10;;;27.60;99.90;;;;;;5043952;28;20633;-83
2023/06/21 08:49:41;;;;;;;0.10;0.10;;;27.80;99.90;;;;;;5040786;28;20228;-83
2023/06/21 08:52:11;;;;;;;0.10;0.10;;;27.70;99.90;;;;;;5044486;28;20188;-83
2023/06/21 08:54:39;;;;;;;0.10;0.10;;;27.70;99.90;;;;;;5045342;28;20224;-82
2023/06/21 08:57:17;;;;;;;0.10;0.10;;;27.90;99.90;;;;;;5044631;28;20174;-83
2023/06/21 09:00:03;;;;;;;0.10;0.10;;;27.80;99.90;;;;;;5047822;28;20212;-83
2023/06/21 09:02:31;;;;;;;0.10;0.10;;;27.80;99.90;;;;;;5044543;28;20184;-83
2023/06/21 09:04:59;;;;;;;0.10;0.10;;;27.80;99.90;;;;;;5044174;28;20194;-83
2023/06/21 09:07:26;;;;;;;0.10;0.10;;;27.90;99.90;;;;;;5041338;28;20205;-83
2023/06/21 09:09:54;;;;;;;0.10;0.10;;;28.00;99.90;;;;;;5042575;28;20204;-83
2023/06/21 09:12:19;;;;;;;0.10;0.10;;;28.10;99.90;;;;;;5042970;28;20178;-83
2023/06/21 09:14:46;;;;;;;0.10;0.10;;;28.10;99.90;;;;;;5045532;28;20192;-83
2023/06/21 09:17:12;;;;;;;0.10;0.10;;;28.00;99.90;;;;;;5045126;28;20693;-84
2023/06/21 09:19:38;;;;;;;0.10;0.10;;;28.00;99.90;;;;;;5043693;28;20276;-83
2023/06/21 09:22:04;;;;;;;0.10;0.10;;;27.70;99.90;;;;;;5044209;28;20228;-83
2023/06/21 09:24:30;;;;;;;0.10;0.10;;;27.60;99.90;;;;;;5053023;28;20541;-83
2023/06/21 09:26:55;;;;;;;0.10;0.10;;;27.70;99.90;;;;;;5041491;28;20193;-83
2023/06/21 09:29:21;;;;;;;0.10;0.10;;;27.80;99.90;;;;;;5044275;28;20264;-83
2023/06/21 09:31:47;;;;;;;0.10;0.10;;;28.00;99.90;;;;;;5043781;28;20216;-83
2023/06/21 09:34:13;;;;;;;0.10;0.10;;;27.80;99.90;;;;;;5043050;28;20177;-83
2023/06/21 09:36:40;;;;;;;0.10;0.10;;;27.80;99.90;;;;;;5043013;28;20186;-83
2023/06/21 09:39:10;;;;;;;0.10;0.10;;;28.00;99.90;;;;;;5044012;28;20197;-83
2023/06/21 09:41:36;;;;;;;0.10;0.10;;;28.20;99.90;;;;;;5041189;28;20706;-82
2023/06/21 09:44:02;;;;;;;0.10;0.10;;;28.20;99.90;;;;;;5043578;28;20189;-83
2023/06/21 09:46:27;;;;;;;0.10;0.10;;;28.30;99.90;;;;;;5046377;28;20182;-83
2023/06/21 09:48:53;;;;;;;0.10;0.10;;;28.40;99.90;;;;;;5047906;28;20206;-83
2023/06/21 09:51:23;;;;;;;0.10;0.10;;;28.50;99.90;;;;;;5043262;28;20213;-82
2023/06/21 09:53:50;;;;;;;0.10;0.10;;;28.70;99.90;;;;;;5045211;28;20528;-83
2023/06/21 09:56:18;;;;;;;0.10;0.10;;;28.80;99.90;;;;;;5044190;28;20185;-83
2023/06/21 09:58:44;;;;;;;0.10;0.10;;;28.80;99.90;;;;;;5045051;28;20181;-83
2023/06/21 10:01:14;;;;;;;0.10;0.10;;;29.00;99.90;;;;;;5041547;28;20213;-83
2023/06/21 10:03:43;;;;;;;0.10;0.10;;;29.00;99.90;;;;;;5051933;28;20209;-83
2023/06/21 10:06:14;;;;;;;0.10;0.10;;;29.40;99.90;;;;;;5043271;28;20197;-83
2023/06/21 10:08:39;;;;;;;0.10;0.10;;;29.70;99.90;;;;;;5043723;28;20584;-83
2023/06/21 10:11:05;;;;;;;0.10;0.10;;;30.00;99.90;;;;;;5043302;28;20200;-83
2023/06/21 10:13:33;;;;;;;0.10;0.10;;;29.80;99.90;;;;;;5044706;28;20196;-83
2023/06/21 10:16:01;;;;;;;0.10;0.10;;;29.70;99.90;;;;;;5042693;28;20264;-83
2023/06/21 10:18:27;;;;;;;0.10;0.10;;;29.80;99.90;;;;;;5042459;28;20281;-83
2023/06/21 10:21:00;;;;;;;0.10;0.10;;;30.00;99.90;;;;;;5042992;28;20194;-83
2023/06/21 10:23:29;;;;;;;0.10;0.10;;;29.60;99.90;;;;;;5042291;28;20210;-82
2023/06/21 10:26:01;;;;;;;0.10;0.10;;;29.70;99.90;;;;;;5051814;28;20265;-83
2023/06/21 10:28:30;;;;;;;0.10;0.10;;;29.70;99.90;;;;;;5044121;28;20246;-83
2023/06/21 10:30:56;;;;;;;0.10;0.10;;;29.80;99.90;;;;;;5042044;28;20212;-82
2023/06/21 10:33:23;;;;;;;0.10;0.10;;;29.90;99.90;;;;;;5044223;28;20181;-83
2023/06/21 10:35:53;;;;;;;0.10;0.10;;;29.80;99.90;;;;;;5041402;28;20190;-83
2023/06/21 10:38:43;;;;;;;0.10;0.10;;;29.70;99.90;;;;;;5042047;28;20269;-83
2023/06/21 10:41:09;;;;;;;0.10;0.10;;;29.60;99.90;;;;;;5041577;28;20288;-83
2023/06/21 10:43:35;;;;;;;0.10;0.10;;;29.60;99.90;;;;;;5047646;28;20240;-83
2023/06/21 10:46:05;;;;;;;0.10;0.10;;;29.50;99.90;;;;;;5044934;28;20213;-83
2023/06/21 10:48:32;;;;;;;0.10;0.10;;;29.50;99.90;;;;;;5044780;28;20224;-83
2023/06/21 10:51:01;;;;;;;0.10;0.10;;;29.60;99.90;;;;;;5044298;28;20212;-83
2023/06/21 10:53:33;;;;;;;0.10;0.10;;;29.60;99.90;;;;;;5042339;28;20243;-83
2023/06/21 10:56:00;;;;;;;0.10;0.10;;;29.50;99.90;;;;;;5045871;28;20173;-83
2023/06/21 10:58:27;;;;;;;0.10;0.10;;;29.50;99.90;;;;;;5045569;28;20196;-83
2023/06/21 11:00:54;;;;;;;0.10;0.10;;;29.30;99.90;;;;;;5042136;28;20205;-83
2023/06/21 11:03:25;;;;;;;0.10;0.10;;;29.40;99.90;;;;;;5044067;28;20181;-83
2023/06/21 11:06:14;;;;;;;0.10;0.10;;;29.60;99.90;;;;;;5043180;28;20197;-83
2023/06/21 11:08:40;;;;;;;0.10;0.10;;;29.80;99.90;;;;;;5043418;28;20272;-83
2023/06/21 11:11:06;;;;;;;0.10;0.10;;;30.10;99.90;;;;;;5040452;28;20674;-83
2023/06/21 11:13:36;;;;;;;0.10;0.10;;;30.00;99.90;;;;;;5041108;28;20212;-83
2023/06/21 11:16:18;;;;;;;0.10;0.10;;;29.90;99.90;;;;;;5042543;28;20180;-83
2023/06/21 11:18:57;;;;;;;0.10;0.10;;;29.90;99.90;;;;;;5040948;28;20181;-84
2023/06/21 11:21:49;;;;;;;0.10;0.10;;;29.90;99.90;;;;;;5043227;28;20285;-83
2023/06/21 11:24:20;;;;;;;0.10;0.10;;;29.90;99.90;;;;;;5039166;28;20189;-83
2023/06/21 11:26:57;;;;;;;0.10;0.10;;;30.00;99.90;;;;;;5041852;28;20201;-83
2023/06/21 11:29:26;;;;;;;0.10;0.10;;;30.30;99.90;;;;;;5039417;28;20228;-83
2023/06/21 11:32:10;;;;;;;0.10;0.10;;;30.30;99.90;;;;;;5041251;28;20261;-83
2023/06/21 11:34:36;;;;;;;0.10;0.10;;;30.70;99.90;;;;;;5041223;28;20649;-83
2023/06/21 11:37:34;;;;;;;0.10;0.10;;;31.00;99.90;;;;;;5042860;28;20173;-83
2023/06/21 11:40:05;;;;;;;0.10;0.10;;;31.00;99.90;;;;;;5043266;28;20194;-83
2023/06/21 11:42:44;;;;;;;0.10;0.10;;;31.00;99.90;;;;;;5040877;28;20182;-83
2023/06/21 11:45:32;;;;;;;0.10;0.10;;;31.20;99.90;;;;;;5042827;28;20207;-83
2023/06/21 11:48:12;;;;;;;0.10;0.10;;;31.30;99.90;;;;;;5039161;28;20292;-83
2023/06/21 11:50:42;;;;;;;0.10;0.10;;;30.90;99.90;;;;;;5039733;28;20689;-83
2023/06/21 11:53:20;;;;;;;0.10;0.10;;;30.50;99.90;;;;;;5039784;28;20225;-83
2023/06/21 11:55:48;;;;;;;0.10;0.10;;;30.60;99.90;;;;;;5040787;28;20244;-83
2023/06/21 11:58:14;;;;;;;0.10;0.10;;;31.10;99.90;;;;;;5040705;28;20182;-83
2023/06/21 12:00:41;;;;;;;0.10;0.10;;;31.20;99.90;;;;;;5040651;28;20572;-83
2023/06/21 12:03:06;;;;;;;0.10;0.10;;;31.10;99.90;;;;;;5041749;28;20651;-83
2023/06/21 12:05:47;;;;;;;0.10;0.10;;;31.20;99.90;;;;;;5042898;28;20233;-83
2023/06/21 12:08:13;;;;;;;0.10;0.10;;;31.40;99.90;;;;;;5045797;28;20245;-83
2023/06/21 12:10:39;;;;;;;0.10;0.10;;;31.40;99.90;;;;;;5045167;28;20836;-83
2023/06/21 12:13:05;;;;;;;0.10;0.10;;;31.70;99.90;;;;;;5045409;28;20598;-83
2023/06/21 12:15:31;;;;;;;0.10;0.10;;;31.50;99.90;;;;;;5044102;28;20170;-83
2023/06/21 12:17:56;;;;;;;0.10;0.10;;;31.60;99.90;;;;;;5044315;28;22081;-84
2023/06/21 12:20:22;;;;;;;0.10;0.10;;;31.50;99.90;;;;;;5043317;28;20215;-83
2023/06/21 12:22:48;;;;;;;0.10;0.10;;;31.80;99.90;;;;;;5041247;28;20186;-83
2023/06/21 12:25:14;;;;;;;0.10;0.10;;;32.00;99.90;;;;;;5046660;28;20221;-83
2023/06/21 12:27:58;;;;;;;0.10;0.10;;;31.70;99.90;;;;;;5046992;28;20198;-82
2023/06/21 12:30:28;;;;;;;0.10;0.10;;;31.50;99.90;;;;;;5047997;28;20197;-84
2023/06/21 12:32:55;;;;;;;0.10;0.10;;;31.00;99.90;;;;;;5045301;28;20272;-83
2023/06/21 12:35:21;;;;;;;0.10;0.10;;;30.90;99.90;;;;;;5048314;28;20185;-83
2023/06/21 12:37:47;;;;;;;0.10;0.10;;;30.70;99.90;;;;;;5046786;28;21017;-83
2023/06/21 12:40:17;;;;;;;0.10;0.10;;;30.90;99.90;;;;;;5045042;28;20292;-83
2023/06/21 12:42:45;;;;;;;0.10;0.10;;;30.90;99.90;;;;;;5044127;28;20182;-83
2023/06/21 12:45:19;;;;;;;0.10;0.10;;;30.90;99.90;;;;;;5048208;28;20190;-83
2023/06/21 12:47:47;;;;;;;0.10;0.10;;;30.00;99.90;;;;;;5045487;28;20219;-83
2023/06/21 12:50:19;;;;;;;0.10;0.10;;;30.30;99.90;;;;;;5047836;28;20202;-83